Time;durP1;ratioP1;P1;durP2;ratioP2;P2;SDS_P1;SDS_P2;PMS_P1;PMS_P2;Temp;Humidity;BMP_temperature;BMP_pressure;BME280_temperature;BME280_humidity;BME280_pressure;Samples;Min_cycle;Max_cycle;Signal;HPM_P1;HPM_P2
2021/12/24 00:01:58;;;;;;;11.80;7.20;;;9.60;99.90;;;;;;5031306;28;20468;-69
2021/12/24 00:04:24;;;;;;;12.50;7.67;;;9.60;99.90;;;;;;5030685;28;20514;-69
2021/12/24 00:06:51;;;;;;;11.10;7.47;;;9.60;99.90;;;;;;5028604;28;20182;-69
2021/12/24 00:09:26;;;;;;;16.07;8.27;;;9.60;99.90;;;;;;5028930;28;20424;-68
2021/12/24 00:11:58;;;;;;;12.90;8.83;;;9.50;99.90;;;;;;5028844;28;20815;-70
2021/12/24 00:14:25;;;;;;;12.80;7.83;;;9.40;99.90;;;;;;5027387;28;20422;-69
2021/12/24 00:16:55;;;;;;;13.10;7.60;;;9.30;99.90;;;;;;5033149;28;20447;-69
2021/12/24 00:19:36;;;;;;;12.20;8.87;;;;;;;;;;5025812;28;20434;-69
2021/12/24 00:35:44;;;;;;;12.40;8.33;;;9.30;99.90;;;;;;5029595;28;20444;-69
2021/12/24 00:38:10;;;;;;;17.80;9.63;;;9.40;99.90;;;;;;5030354;28;20464;-69
2021/12/24 00:40:39;;;;;;;19.00;9.43;;;9.40;99.90;;;;;;5030028;28;20512;-70
2021/12/24 00:43:05;;;;;;;14.63;8.90;;;9.30;99.90;;;;;;5030168;28;20521;-69
2021/12/24 00:45:33;;;;;;;12.87;8.43;;;9.30;99.90;;;;;;5036568;28;20534;-69
2021/12/24 00:48:00;;;;;;;12.03;8.50;;;9.30;99.90;;;;;;5040640;28;20494;-69
2021/12/24 00:50:44;;;;;;;14.50;9.30;;;9.40;99.90;;;;;;5024074;28;20458;-70
2021/12/24 00:55:02;;;;;;;13.73;8.80;;;9.40;99.90;;;;;;5025827;28;20436;-69
2021/12/24 00:55:55;;;;;;;14.20;9.57;;;9.30;99.90;;;;;;5029353;28;20433;-70
2021/12/24 00:58:21;;;;;;;17.53;9.37;;;9.20;99.90;;;;;;5030186;28;20748;-69
2021/12/24 01:00:47;;;;;;;13.87;8.60;;;;;;;;;;5024823;28;20294;-69
2021/12/24 01:03:12;;;;;;;15.53;8.43;;;9.20;99.90;;;;;;5012258;28;20241;-69
2021/12/24 01:05:39;;;;;;;11.73;7.93;;;9.10;99.90;;;;;;5026643;28;20186;-70
2021/12/24 01:08:07;;;;;;;12.50;7.97;;;9.20;99.90;;;;;;5029666;28;20189;-69
2021/12/24 01:10:38;;;;;;;15.77;8.33;;;9.00;99.90;;;;;;5029561;28;20436;-69
2021/12/24 01:13:05;;;;;;;10.97;7.80;;;9.30;99.90;;;;;;5028089;28;20556;-69
2021/12/24 01:15:32;;;;;;;11.63;7.33;;;;;;;;;;5031570;28;20935;-70
2021/12/24 01:18:10;;;;;;;14.43;8.33;;;9.30;99.90;;;;;;5035804;28;20954;-70
2021/12/24 01:26:11;;;;;;;10.43;7.27;;;9.30;99.90;;;;;;5028722;28;20863;-69
2021/12/24 01:28:49;;;;;;;10.60;7.70;;;9.30;99.90;;;;;;5029124;28;20420;-69
2021/12/24 01:37:53;;;;;;;12.60;7.77;;;9.30;99.90;;;;;;5029396;28;20941;-69
2021/12/24 01:40:07;;;;;;;9.90;7.40;;;9.30;99.90;;;;;;5028900;28;20783;-69
2021/12/24 01:45:32;;;;;;;13.40;7.50;;;9.40;99.90;;;;;;5033381;28;20570;-69
2021/12/24 01:48:01;;;;;;;10.03;7.60;;;9.40;99.90;;;;;;5035301;28;20812;-70
2021/12/24 01:50:32;;;;;;;10.80;7.10;;;9.40;99.90;;;;;;5027561;28;20420;-70
2021/12/24 01:52:57;;;;;;;13.00;8.40;;;9.50;99.90;;;;;;5028667;28;20455;-69
2021/12/24 01:55:24;;;;;;;9.60;7.37;;;9.50;99.90;;;;;;5025593;28;20432;-68
2021/12/24 01:57:50;;;;;;;11.87;7.27;;;9.50;99.90;;;;;;5032868;28;20201;-70
2021/12/24 02:00:29;;;;;;;11.00;6.90;;;9.50;99.90;;;;;;5038065;28;20732;-70
2021/12/24 02:02:55;;;;;;;9.83;7.40;;;9.50;99.90;;;;;;5028652;28;20513;-69
2021/12/24 02:05:20;;;;;;;10.03;6.90;;;9.50;99.90;;;;;;5027741;28;20759;-69
2021/12/24 02:07:47;;;;;;;11.60;7.30;;;9.50;99.90;;;;;;5029000;28;20413;-69
2021/12/24 02:10:15;;;;;;;11.73;7.20;;;9.60;99.90;;;;;;5027970;28;20259;-69
2021/12/24 02:12:41;;;;;;;11.63;7.60;;;9.60;99.90;;;;;;5028489;28;20482;-69
2021/12/24 02:15:14;;;;;;;13.40;7.53;;;9.60;99.90;;;;;;5031793;28;20439;-69
2021/12/24 02:28:36;;;;;;;11.57;7.23;;;9.60;99.90;;;;;;5028355;28;20435;-69
2021/12/24 02:31:03;;;;;;;10.23;7.00;;;9.60;99.90;;;;;;5026378;28;20483;-69
2021/12/24 02:33:29;;;;;;;12.03;7.90;;;9.60;99.90;;;;;;5028805;28;20894;-70
2021/12/24 02:35:54;;;;;;;10.73;6.80;;;9.60;99.90;;;;;;5027125;28;20421;-69
2021/12/24 02:38:20;;;;;;;11.10;7.47;;;9.60;99.90;;;;;;5028173;28;22025;-70
2021/12/24 02:40:46;;;;;;;11.30;7.60;;;9.70;99.90;;;;;;5027511;28;20186;-70
2021/12/24 02:43:16;;;;;;;10.93;7.23;;;9.60;99.90;;;;;;5024902;28;20195;-70
2021/12/24 02:45:44;;;;;;;8.90;6.57;;;9.60;99.90;;;;;;5033067;28;20417;-69
2021/12/24 02:56:16;;;;;;;9.10;6.03;;;9.60;99.90;;;;;;5024715;28;20530;-69
2021/12/24 02:58:45;;;;;;;9.00;6.53;;;9.60;99.90;;;;;;5027737;28;20815;-69
2021/12/24 03:01:17;;;;;;;10.60;6.60;;;9.60;99.90;;;;;;5028015;28;20201;-69
2021/12/24 03:03:48;;;;;;;9.20;6.43;;;9.60;99.90;;;;;;5028061;28;20417;-69
2021/12/24 03:06:17;;;;;;;11.10;6.70;;;9.60;99.90;;;;;;5024828;28;20574;-69
2021/12/24 03:08:43;;;;;;;10.20;6.60;;;9.70;99.90;;;;;;5026017;28;20416;-69
2021/12/24 03:11:08;;;;;;;8.80;6.03;;;9.70;99.90;;;;;;5027543;28;21211;-69
2021/12/24 03:13:36;;;;;;;12.10;7.07;;;9.70;99.90;;;;;;5026274;28;20176;-70
2021/12/24 03:16:02;;;;;;;10.17;6.53;;;9.70;99.90;;;;;;5051008;28;20185;-69
2021/12/24 03:18:30;;;;;;;15.80;6.67;;;9.70;99.90;;;;;;5039773;28;20409;-70
2021/12/24 03:21:06;;;;;;;13.10;6.77;;;9.70;99.90;;;;;;5024239;28;20404;-70
2021/12/24 03:23:36;;;;;;;12.23;6.70;;;9.80;99.90;;;;;;5026718;28;20410;-70
2021/12/24 03:26:04;;;;;;;11.17;6.07;;;9.80;99.90;;;;;;5027333;28;20556;-69
2021/12/24 03:28:29;;;;;;;8.40;6.10;;;9.80;99.90;;;;;;5042988;28;20981;-70
2021/12/24 03:30:55;;;;;;;11.67;6.60;;;9.90;99.90;;;;;;5027184;28;20503;-70
2021/12/24 03:33:20;;;;;;;10.77;6.27;;;9.90;99.90;;;;;;5027371;28;20197;-70
2021/12/24 03:35:46;;;;;;;10.57;5.80;;;9.90;99.90;;;;;;5028395;28;20265;-69
2021/12/24 03:38:11;;;;;;;9.23;6.20;;;9.90;99.90;;;;;;5027451;28;20710;-69
2021/12/24 03:40:37;;;;;;;10.33;6.10;;;9.90;99.90;;;;;;5026601;28;20181;-69
2021/12/24 03:43:02;;;;;;;12.97;5.90;;;9.90;99.90;;;;;;5027537;28;20194;-69
2021/12/24 03:45:36;;;;;;;8.73;5.63;;;9.90;99.90;;;;;;5032934;28;20184;-70
2021/12/24 03:48:13;;;;;;;8.90;6.13;;;9.90;99.90;;;;;;5031953;28;20170;-70
2021/12/24 03:56:15;;;;;;;7.87;6.43;;;9.60;99.90;;;;;;5027193;28;20574;-69
2021/12/24 03:58:42;;;;;;;8.70;6.40;;;9.90;99.90;;;;;;5027380;28;20524;-70
2021/12/24 04:01:08;;;;;;;10.50;6.60;;;9.90;99.90;;;;;;5027198;28;20181;-70
2021/12/24 04:03:35;;;;;;;10.63;6.90;;;9.90;99.90;;;;;;5027883;28;20426;-70
2021/12/24 04:06:01;;;;;;;9.33;6.20;;;9.90;99.90;;;;;;5029800;28;20416;-69
2021/12/24 04:08:27;;;;;;;9.33;5.80;;;;;;;;;;5030304;28;20417;-70
2021/12/24 04:10:53;;;;;;;12.93;6.80;;;9.80;99.90;;;;;;5030652;28;20910;-69
2021/12/24 04:13:18;;;;;;;8.40;6.40;;;9.90;99.90;;;;;;5031195;28;20473;-70
2021/12/24 04:15:44;;;;;;;9.97;6.20;;;9.80;99.90;;;;;;5030141;28;20170;-70
2021/12/24 04:18:38;;;;;;;9.93;6.33;;;9.80;99.90;;;;;;5030569;28;20224;-69
2021/12/24 04:26:30;;;;;;;9.63;6.50;;;9.70;99.90;;;;;;5030453;28;20435;-69
2021/12/24 04:28:56;;;;;;;9.33;6.50;;;9.70;99.90;;;;;;5030865;28;21021;-69
2021/12/24 04:31:28;;;;;;;9.30;6.20;;;9.70;99.90;;;;;;5045210;28;20471;-69
2021/12/24 04:33:58;;;;;;;9.60;6.50;;;9.70;99.90;;;;;;5031102;28;20883;-69
2021/12/24 04:36:47;;;;;;;11.47;7.07;;;9.80;99.90;;;;;;5044405;28;20459;-69
2021/12/24 04:39:37;;;;;;;11.33;7.00;;;9.70;99.90;;;;;;5030739;28;20511;-70
2021/12/24 04:53:11;;;;;;;9.30;6.70;;;9.60;99.90;;;;;;5030500;28;20521;-69
2021/12/24 05:03:46;;;;;;;11.77;7.20;;;9.40;99.90;;;;;;5030295;28;20408;-69
2021/12/24 05:08:53;;;;;;;10.03;6.70;;;9.40;99.90;;;;;;5023829;28;20535;-69
2021/12/24 05:11:20;;;;;;;10.43;7.53;;;9.30;99.90;;;;;;5022424;28;20440;-70
2021/12/24 05:13:47;;;;;;;11.37;7.47;;;9.40;99.90;;;;;;5030010;28;20958;-69
2021/12/24 05:21:34;;;;;;;9.83;6.40;;;9.40;99.90;;;;;;5016618;28;20929;-70
2021/12/24 05:24:01;;;;;;;9.47;6.90;;;9.40;99.90;;;;;;5026523;28;20424;-69
2021/12/24 05:26:27;;;;;;;9.87;6.87;;;11.90;99.90;;;;;;5027730;28;20631;-69
2021/12/24 05:28:53;;;;;;;9.90;6.17;;;9.50;99.90;;;;;;5022085;28;20977;-69
2021/12/24 05:31:20;;;;;;;9.47;6.43;;;9.60;99.90;;;;;;5029095;28;20475;-70
2021/12/24 05:33:46;;;;;;;11.00;6.70;;;9.60;99.90;;;;;;5018283;28;20821;-69
2021/12/24 05:36:11;;;;;;;8.67;6.60;;;9.60;99.90;;;;;;5041809;28;20429;-69
2021/12/24 05:38:37;;;;;;;9.90;6.73;;;9.60;99.90;;;;;;5026180;28;20200;-69
2021/12/24 05:41:03;;;;;;;10.03;6.70;;;9.60;99.90;;;;;;5019470;28;20616;-69
2021/12/24 05:43:29;;;;;;;9.37;6.80;;;9.60;99.90;;;;;;5023975;28;20501;-69
2021/12/24 05:45:54;;;;;;;10.10;7.10;;;9.90;99.90;;;;;;5030785;28;20192;-69
2021/12/24 05:48:20;;;;;;;12.90;7.37;;;9.70;99.90;;;;;;5046838;28;20190;-69
2021/12/24 05:50:45;;;;;;;8.37;6.47;;;9.70;99.90;;;;;;5027947;28;20236;-70
2021/12/24 05:53:11;;;;;;;11.40;6.63;;;9.80;99.90;;;;;;5020760;28;20210;-69
2021/12/24 05:55:37;;;;;;;11.27;7.00;;;9.80;99.90;;;;;;5026214;28;20734;-69
2021/12/24 05:58:07;;;;;;;10.07;6.10;;;9.80;99.90;;;;;;5023000;28;20198;-68
2021/12/24 06:00:35;;;;;;;11.73;7.20;;;9.80;99.90;;;;;;5028880;28;20781;-69
2021/12/24 06:03:01;;;;;;;10.50;7.03;;;9.80;99.90;;;;;;5021172;28;20443;-69
2021/12/24 06:05:26;;;;;;;10.10;6.80;;;9.80;99.90;;;;;;5021074;28;20867;-69
2021/12/24 06:07:52;;;;;;;13.87;6.77;;;;;;;;;;5031340;28;20240;-69
2021/12/24 06:10:18;;;;;;;9.03;6.63;;;9.90;99.90;;;;;;5025294;28;20253;-69
2021/12/24 06:12:43;;;;;;;8.43;6.60;;;9.90;99.90;;;;;;5025937;28;20234;-70
2021/12/24 06:15:09;;;;;;;8.87;6.30;;;9.90;99.90;;;;;;5027304;28;20193;-69
2021/12/24 06:17:37;;;;;;;8.57;6.47;;;9.90;99.90;;;;;;5020320;28;20232;-69
2021/12/24 06:20:08;;;;;;;11.03;7.10;;;9.90;99.90;;;;;;5026738;28;20604;-69
2021/12/24 06:22:33;;;;;;;11.07;6.20;;;9.90;99.90;;;;;;5020740;28;20994;-69
2021/12/24 06:24:59;;;;;;;10.27;5.70;;;9.90;99.90;;;;;;5021545;28;20472;-69
2021/12/24 06:27:25;;;;;;;13.30;7.43;;;9.90;99.90;;;;;;5022042;28;20211;-69
2021/12/24 06:29:51;;;;;;;7.37;5.70;;;9.90;99.90;;;;;;5025910;28;20435;-69
2021/12/24 06:32:16;;;;;;;11.13;6.43;;;9.90;99.90;;;;;;5023018;28;20194;-69
2021/12/24 06:34:42;;;;;;;11.53;6.77;;;9.90;99.90;;;;;;5006567;28;20182;-69
2021/12/24 06:37:08;;;;;;;9.63;6.70;;;9.90;99.90;;;;;;5027320;28;20197;-69
2021/12/24 06:39:34;;;;;;;8.73;6.03;;;9.90;99.90;;;;;;5027910;28;20178;-70
2021/12/24 06:42:00;;;;;;;12.87;7.00;;;9.90;99.90;;;;;;5028253;28;20443;-70
2021/12/24 06:44:26;;;;;;;9.63;6.93;;;9.90;99.90;;;;;;5024510;28;20737;-69
2021/12/24 06:46:51;;;;;;;10.47;6.77;;;9.90;99.90;;;;;;5040337;28;20181;-69
2021/12/24 06:49:17;;;;;;;11.97;6.57;;;9.90;99.90;;;;;;5028069;28;20722;-70
2021/12/24 06:51:43;;;;;;;9.93;6.60;;;9.90;99.90;;;;;;5025492;28;20198;-70
2021/12/24 06:54:10;;;;;;;10.17;6.50;;;9.90;99.90;;;;;;5025096;28;20177;-69
2021/12/24 06:56:37;;;;;;;12.23;6.70;;;9.80;99.90;;;;;;5023758;28;20476;-69
2021/12/24 06:59:03;;;;;;;8.07;6.10;;;9.80;99.90;;;;;;5011972;28;20428;-70
2021/12/24 07:01:28;;;;;;;10.40;6.20;;;9.80;99.90;;;;;;5027735;28;20468;-69
2021/12/24 07:03:54;;;;;;;10.17;6.40;;;9.80;99.90;;;;;;5028052;28;20486;-69
2021/12/24 07:06:20;;;;;;;8.83;6.33;;;9.80;99.90;;;;;;5026327;28;20186;-68
2021/12/24 07:08:45;;;;;;;9.73;5.97;;;9.80;99.90;;;;;;5025870;28;20648;-69
2021/12/24 07:11:11;;;;;;;10.40;6.73;;;9.80;99.90;;;;;;5027560;28;20318;-69
2021/12/24 07:13:36;;;;;;;10.60;6.80;;;9.80;99.90;;;;;;5027989;28;20166;-70
2021/12/24 07:16:02;;;;;;;11.13;6.60;;;9.80;99.90;;;;;;5031876;28;20177;-69
2021/12/24 07:18:28;;;;;;;11.50;6.07;;;9.80;99.90;;;;;;5028444;28;20201;-69
2021/12/24 07:20:54;;;;;;;8.37;6.00;;;9.80;99.90;;;;;;5026392;28;20874;-68
2021/12/24 07:23:19;;;;;;;9.73;6.60;;;9.80;99.90;;;;;;5027936;28;20177;-69
2021/12/24 07:25:46;;;;;;;8.77;6.30;;;9.70;99.90;;;;;;5027337;28;20193;-70
2021/12/24 07:28:11;;;;;;;11.43;6.70;;;9.70;99.90;;;;;;5026214;28;20212;-69
2021/12/24 07:30:37;;;;;;;9.27;5.90;;;9.80;99.90;;;;;;5027652;28;20832;-69
2021/12/24 07:33:03;;;;;;;9.17;6.90;;;9.80;99.90;;;;;;5026326;28;20201;-69
2021/12/24 07:35:28;;;;;;;10.57;6.03;;;9.80;99.90;;;;;;5041909;28;20632;-69
2021/12/24 07:37:54;;;;;;;8.23;5.87;;;9.80;99.90;;;;;;5027402;28;20578;-69
2021/12/24 07:40:20;;;;;;;9.03;6.20;;;9.90;99.90;;;;;;5029496;28;20331;-68
2021/12/24 07:42:47;;;;;;;9.80;6.23;;;9.90;99.90;;;;;;5031383;28;20192;-69
2021/12/24 07:45:14;;;;;;;10.80;7.00;;;9.80;99.90;;;;;;5038621;28;20177;-69
2021/12/24 07:47:42;;;;;;;13.90;6.60;;;9.90;99.90;;;;;;5042948;28;20411;-69
2021/12/24 15:33:22;;;;;;;16.70;10.97;;;7.90;99.90;;;;;;5121154;27;20925;-71
2021/12/24 15:35:52;;;;;;;18.93;10.47;;;8.00;99.90;;;;;;5103568;28;20423;-71
2021/12/24 15:38:18;;;;;;;17.33;11.40;;;8.10;99.90;;;;;;5105020;28;20444;-71
2021/12/24 15:40:44;;;;;;;18.10;10.90;;;8.30;99.90;;;;;;5106136;28;20409;-71
2021/12/24 15:43:10;;;;;;;25.87;12.03;;;8.40;99.90;;;;;;5084638;28;20203;-71
2021/12/24 15:45:37;;;;;;;19.97;12.77;;;8.70;99.90;;;;;;5092130;28;20167;-71
2021/12/24 15:48:03;;;;;;;19.50;12.87;;;8.80;99.90;;;;;;5093761;28;20442;-71
2021/12/24 15:50:29;;;;;;;17.80;12.10;;;8.80;99.90;;;;;;5083826;28;20421;-71
2021/12/24 15:52:55;;;;;;;18.30;11.40;;;8.90;99.90;;;;;;5085333;28;20442;-71
2021/12/24 15:55:20;;;;;;;16.83;11.30;;;8.90;99.90;;;;;;5083826;28;20178;-71
2021/12/24 15:57:46;;;;;;;19.23;12.20;;;9.60;99.90;;;;;;5084951;28;20418;-70
2021/12/24 16:00:12;;;;;;;38.47;24.20;;;9.00;99.90;;;;;;5083497;28;20206;-70
2021/12/24 16:02:38;;;;;;;28.17;16.80;;;9.10;99.90;;;;;;5083395;28;20860;-70
2021/12/24 16:05:04;;;;;;;26.50;16.63;;;9.10;99.90;;;;;;5081685;28;20537;-71
2021/12/24 16:07:29;;;;;;;20.67;14.17;;;9.10;99.90;;;;;;5083984;28;20184;-71
2021/12/24 16:09:56;;;;;;;21.30;12.87;;;;;;;;;;5084945;28;20176;-71
2021/12/24 16:12:22;;;;;;;18.60;11.67;;;9.40;99.90;;;;;;5084918;28;20204;-71
2021/12/24 16:14:48;;;;;;;18.10;11.13;;;9.20;99.90;;;;;;5086480;28;20471;-71
2021/12/24 16:17:13;;;;;;;18.13;11.77;;;9.20;99.90;;;;;;5090676;28;20515;-71
2021/12/24 16:19:39;;;;;;;19.87;11.27;;;9.30;99.90;;;;;;5083951;28;20180;-71
2021/12/24 16:22:06;;;;;;;18.40;12.03;;;9.30;99.90;;;;;;5083220;28;20573;-71
2021/12/24 16:24:32;;;;;;;18.40;11.97;;;;;;;;;;5082815;28;20179;-71
2021/12/24 16:26:58;;;;;;;20.20;12.40;;;9.40;99.90;;;;;;5082159;28;20418;-70
2021/12/24 16:29:50;;;;;;;20.63;12.30;;;9.30;99.90;;;;;;5084325;28;20182;-71
2021/12/24 16:32:18;;;;;;;16.10;10.90;;;9.30;99.90;;;;;;5080841;28;20235;-71
2021/12/24 16:34:44;;;;;;;18.00;12.67;;;9.30;99.90;;;;;;5081847;28;20472;-71
2021/12/24 16:37:12;;;;;;;23.50;16.00;;;9.20;99.90;;;;;;5082874;28;20904;-71
2021/12/24 16:39:38;;;;;;;22.97;13.80;;;9.20;99.90;;;;;;5083539;28;20418;-71
2021/12/24 16:42:04;;;;;;;24.37;13.93;;;9.20;99.90;;;;;;5084325;28;20552;-71
2021/12/24 16:44:29;;;;;;;18.90;12.23;;;9.20;99.90;;;;;;5070358;28;20506;-71
2021/12/24 16:46:56;;;;;;;19.20;12.73;;;9.20;99.90;;;;;;5073874;28;20168;-71
2021/12/24 16:49:21;;;;;;;20.70;13.73;;;9.20;99.90;;;;;;5089313;28;20172;-72
2021/12/24 16:51:48;;;;;;;20.27;13.30;;;;;;;;;;5069713;28;20442;-71
2021/12/24 16:54:16;;;;;;;23.43;12.60;;;9.20;99.90;;;;;;5069929;28;20302;-71
2021/12/24 16:56:41;;;;;;;19.47;11.73;;;8.30;99.90;;;;;;5071099;28;20738;-70
2021/12/24 16:59:07;;;;;;;19.30;11.73;;;9.20;99.90;;;;;;5069984;28;20427;-71
2021/12/24 17:01:33;;;;;;;269.83;79.10;;;9.20;99.90;;;;;;5066672;28;20216;-73
2021/12/24 17:03:58;;;;;;;279.43;80.47;;;9.20;99.90;;;;;;5069367;28;20231;-73
2021/12/24 17:06:24;;;;;;;174.60;56.47;;;9.40;99.90;;;;;;5067852;28;20173;-73
2021/12/24 17:08:49;;;;;;;482.87;161.60;;;9.40;99.90;;;;;;5069930;28;20495;-75
2021/12/24 17:11:15;;;;;;;837.37;301.07;;;10.30;99.90;;;;;;5067945;28;20204;-74
2021/12/24 17:13:40;;;;;;;518.50;156.40;;;10.40;99.90;;;;;;5067786;28;20205;-73
2021/12/24 17:16:06;;;;;;;250.10;69.53;;;;;;;;;;5069318;28;20188;-74
2021/12/24 17:18:32;;;;;;;230.13;67.77;;;10.60;99.90;;;;;;5067428;28;20177;-74
2021/12/24 17:20:58;;;;;;;282.23;83.40;;;10.80;99.90;;;;;;5066999;28;20506;-73
2021/12/24 17:23:23;;;;;;;144.57;47.20;;;10.90;99.90;;;;;;5067567;28;20187;-74
2021/12/24 17:25:51;;;;;;;150.10;46.00;;;10.90;99.90;;;;;;5069844;28;20172;-73
2021/12/24 17:28:17;;;;;;;106.57;34.60;;;11.10;99.90;;;;;;5067219;28;20196;-74
2021/12/24 17:30:49;;;;;;;68.87;23.20;;;11.00;99.90;;;;;;5069926;28;20850;-71
2021/12/24 17:33:18;;;;;;;18.90;12.07;;;10.80;99.90;;;;;;5089478;28;20945;-72
2021/12/24 17:35:44;;;;;;;20.47;12.10;;;10.30;99.90;;;;;;5089338;28;20888;-72
2021/12/24 17:38:09;;;;;;;20.00;13.30;;;10.00;99.90;;;;;;5089604;28;20440;-72
2021/12/24 17:40:35;;;;;;;21.90;14.03;;;9.70;99.90;;;;;;5071596;28;20206;-73
2021/12/24 17:43:00;;;;;;;38.80;21.87;;;9.50;99.90;;;;;;5072033;28;20207;-72
2021/12/24 17:45:27;;;;;;;30.40;19.70;;;9.40;99.90;;;;;;5066477;28;20195;-72
2021/12/24 17:47:53;;;;;;;27.10;17.10;;;;;;;;;;5089145;28;20172;-73
2021/12/24 17:50:19;;;;;;;22.70;14.43;;;9.30;99.90;;;;;;5088700;28;20406;-73
2021/12/24 17:52:45;;;;;;;24.53;14.50;;;9.30;99.90;;;;;;5071155;28;20441;-73
2021/12/24 17:55:11;;;;;;;24.70;14.43;;;;;;;;;;5088620;28;20214;-72
2021/12/24 17:57:37;;;;;;;23.27;15.23;;;9.30;99.90;;;;;;5093571;28;20172;-73
2021/12/24 18:00:06;;;;;;;22.80;14.03;;;9.20;99.90;;;;;;5088547;28;20939;-73
2021/12/24 18:02:37;;;;;;;25.93;12.80;;;9.20;99.90;;;;;;5089602;28;20987;-73
2021/12/24 18:05:03;;;;;;;24.10;13.83;;;9.20;99.90;;;;;;5077921;28;20816;-73
2021/12/24 18:07:29;;;;;;;24.47;13.67;;;9.20;99.90;;;;;;5069136;28;20468;-73
2021/12/24 18:09:54;;;;;;;23.47;13.97;;;9.20;99.90;;;;;;5070764;28;20430;-73
2021/12/24 18:12:20;;;;;;;21.20;12.57;;;9.30;99.90;;;;;;5089637;28;20278;-73
2021/12/24 18:14:45;;;;;;;23.30;13.90;;;9.30;99.90;;;;;;5092671;28;20183;-73
2021/12/24 18:17:11;;;;;;;23.23;14.40;;;9.30;99.90;;;;;;5085031;28;20176;-73
2021/12/24 18:19:36;;;;;;;21.97;14.27;;;9.30;99.90;;;;;;5088165;28;20187;-72
2021/12/24 18:22:03;;;;;;;24.00;15.60;;;9.30;99.90;;;;;;5070377;28;20203;-73
2021/12/24 18:24:28;;;;;;;26.10;14.37;;;9.30;99.90;;;;;;5089344;28;20184;-72
2021/12/24 18:26:54;;;;;;;22.60;15.23;;;9.30;99.90;;;;;;5088500;28;20414;-73
2021/12/24 18:29:19;;;;;;;26.93;16.87;;;9.30;99.90;;;;;;5089379;28;20241;-73
2021/12/24 18:31:45;;;;;;;27.07;17.27;;;;;;;;;;5070783;28;20206;-73
2021/12/24 18:34:12;;;;;;;26.40;15.40;;;9.30;99.90;;;;;;5089229;28;20708;-73
2021/12/24 18:36:38;;;;;;;31.87;16.60;;;9.30;99.90;;;;;;5088286;28;20642;-72
2021/12/24 18:39:05;;;;;;;41.87;23.30;;;9.30;99.90;;;;;;5088556;28;20429;-73
2021/12/24 18:41:31;;;;;;;34.83;20.37;;;9.30;99.90;;;;;;5088705;28;20274;-73
2021/12/24 18:43:57;;;;;;;26.17;16.60;;;9.30;99.90;;;;;;5087311;28;20571;-73
2021/12/24 18:46:26;;;;;;;30.83;15.90;;;;;;;;;;5089499;28;20164;-73
2021/12/24 18:48:52;;;;;;;24.40;15.47;;;9.30;99.90;;;;;;5090642;28;20894;-73
2021/12/24 18:51:18;;;;;;;25.97;15.40;;;9.30;99.90;;;;;;5089989;28;20974;-73
2021/12/24 18:53:44;;;;;;;32.10;16.13;;;9.30;99.90;;;;;;5080403;28;20493;-73
2021/12/24 18:56:10;;;;;;;23.97;14.00;;;9.30;99.90;;;;;;5088128;28;20253;-73
2021/12/24 18:58:35;;;;;;;28.10;17.37;;;9.30;99.90;;;;;;5069793;28;20172;-73
2021/12/24 19:01:01;;;;;;;30.43;15.80;;;9.20;99.90;;;;;;5070226;28;20171;-73
2021/12/24 19:03:26;;;;;;;32.83;20.07;;;9.20;99.90;;;;;;5088534;28;20232;-72
2021/12/24 19:05:52;;;;;;;27.60;15.57;;;;;;;;;;5086521;28;20172;-73
2021/12/24 19:08:18;;;;;;;21.83;13.60;;;9.30;99.90;;;;;;5086764;28;20176;-73
2021/12/24 19:10:46;;;;;;;23.43;13.70;;;9.30;99.90;;;;;;5080355;28;20410;-72
2021/12/24 19:13:12;;;;;;;26.40;13.40;;;9.20;99.90;;;;;;5069576;28;20453;-72
2021/12/24 19:15:38;;;;;;;23.17;14.03;;;9.20;99.90;;;;;;5087040;28;20422;-72
2021/12/24 19:18:04;;;;;;;26.03;14.30;;;9.30;99.90;;;;;;5102509;28;20984;-73
2021/12/24 19:20:30;;;;;;;23.90;13.63;;;9.20;99.90;;;;;;5081108;28;20409;-72
2021/12/24 19:22:56;;;;;;;22.10;13.63;;;9.20;99.90;;;;;;5069083;28;20260;-72
2021/12/24 19:25:23;;;;;;;30.63;18.40;;;9.30;99.90;;;;;;5084864;28;20168;-72
2021/12/24 19:27:49;;;;;;;25.90;14.03;;;9.30;99.90;;;;;;5070022;28;20413;-72
2021/12/24 19:30:16;;;;;;;26.40;14.60;;;9.20;99.90;;;;;;5087988;28;20417;-72
2021/12/24 19:32:42;;;;;;;26.00;15.97;;;9.20;99.90;;;;;;5087674;28;20450;-72
2021/12/24 19:35:11;;;;;;;22.90;14.00;;;9.20;99.90;;;;;;5087371;28;20413;-73
2021/12/24 19:37:37;;;;;;;27.77;17.77;;;9.20;99.90;;;;;;5087157;28;20183;-72
2021/12/24 19:40:05;;;;;;;26.60;16.77;;;9.20;99.90;;;;;;5087692;28;20420;-73
2021/12/24 19:42:31;;;;;;;31.73;18.37;;;9.20;99.90;;;;;;5087217;28;20453;-72
2021/12/24 19:44:56;;;;;;;28.47;17.50;;;9.20;99.90;;;;;;5085587;28;20410;-73
2021/12/24 19:47:22;;;;;;;24.30;14.33;;;9.20;99.90;;;;;;5093101;28;20194;-72
2021/12/24 19:49:48;;;;;;;25.63;14.90;;;9.10;99.90;;;;;;5107175;28;20263;-71
2021/12/24 19:52:14;;;;;;;23.33;13.70;;;9.20;99.90;;;;;;5070344;28;20199;-71
2021/12/24 19:54:39;;;;;;;24.23;16.20;;;9.10;99.90;;;;;;5069502;28;20640;-72
2021/12/24 19:57:07;;;;;;;30.10;18.37;;;9.10;99.90;;;;;;5069094;28;20306;-72
2021/12/24 19:59:33;;;;;;;26.27;15.60;;;9.10;99.90;;;;;;5087122;28;20164;-71
2021/12/24 20:01:58;;;;;;;25.20;14.17;;;9.10;99.90;;;;;;5086659;28;20471;-72
2021/12/24 20:04:24;;;;;;;27.97;16.37;;;9.10;99.90;;;;;;5069521;28;20192;-72
2021/12/24 20:06:49;;;;;;;28.20;15.67;;;9.10;99.90;;;;;;5067504;28;20748;-71
2021/12/24 20:09:15;;;;;;;23.27;14.90;;;9.10;99.90;;;;;;5087493;28;20592;-72
2021/12/24 20:11:41;;;;;;;24.03;15.30;;;;;;;;;;5086840;28;20196;-71
2021/12/24 20:14:13;;;;;;;28.30;15.43;;;9.10;99.90;;;;;;5087128;28;20172;-71
2021/12/24 20:16:44;;;;;;;24.70;15.10;;;8.90;99.90;;;;;;5091184;28;20524;-72
2021/12/24 20:19:10;;;;;;;27.00;16.63;;;9.10;99.90;;;;;;5070682;28;20417;-71
2021/12/24 20:21:35;;;;;;;27.30;16.67;;;9.20;99.90;;;;;;5089451;28;20457;-72
2021/12/24 20:24:01;;;;;;;23.30;14.60;;;9.10;99.90;;;;;;5091266;28;20172;-73
2021/12/24 20:26:27;;;;;;;22.53;14.07;;;9.20;99.90;;;;;;5091318;28;20180;-72
2021/12/24 20:28:52;;;;;;;25.60;15.00;;;9.20;99.90;;;;;;5090886;28;20180;-72
2021/12/24 20:31:18;;;;;;;24.83;15.20;;;9.10;99.90;;;;;;5090609;28;20211;-73
2021/12/24 20:33:43;;;;;;;25.30;14.90;;;9.10;99.90;;;;;;5091054;28;20241;-72
2021/12/24 20:36:09;;;;;;;23.87;14.73;;;9.20;99.90;;;;;;5089755;28;20187;-73
2021/12/24 20:38:35;;;;;;;23.00;15.00;;;9.20;99.90;;;;;;5090922;28;20168;-73
2021/12/24 20:41:01;;;;;;;24.93;14.70;;;9.20;99.90;;;;;;5090492;28;20183;-72
2021/12/24 20:43:26;;;;;;;26.27;16.50;;;9.20;99.90;;;;;;5090346;28;20468;-73
2021/12/24 20:45:52;;;;;;;24.63;15.60;;;9.10;99.90;;;;;;5100469;28;20255;-73
2021/12/24 20:48:18;;;;;;;28.30;15.77;;;;;;;;;;5103706;28;20256;-73
2021/12/24 20:50:44;;;;;;;23.87;15.27;;;9.20;99.90;;;;;;5095245;28;20229;-73
2021/12/24 20:53:11;;;;;;;24.20;15.00;;;9.20;99.90;;;;;;5072313;28;20456;-74
2021/12/24 20:55:39;;;;;;;29.60;15.47;;;9.20;99.90;;;;;;5090358;28;20426;-72
2021/12/24 20:58:06;;;;;;;23.33;14.43;;;9.20;99.90;;;;;;5089931;28;20505;-73
2021/12/24 21:00:34;;;;;;;25.40;14.27;;;9.60;99.90;;;;;;5090791;28;20405;-73
2021/12/24 21:03:01;;;;;;;26.33;15.07;;;9.20;99.90;;;;;;5089814;28;20508;-73
2021/12/24 21:05:26;;;;;;;24.37;14.50;;;9.10;99.90;;;;;;5086851;28;20406;-73
2021/12/24 21:07:53;;;;;;;27.10;15.00;;;9.20;99.90;;;;;;5078535;28;20479;-73
2021/12/24 21:10:19;;;;;;;24.70;14.83;;;9.20;99.90;;;;;;5090411;28;20168;-74
2021/12/24 21:12:46;;;;;;;28.17;15.20;;;9.20;99.90;;;;;;5090447;28;20442;-73
2021/12/24 21:15:13;;;;;;;28.70;15.10;;;9.20;99.90;;;;;;5097570;28;20417;-73
2021/12/24 21:17:39;;;;;;;25.47;14.67;;;9.20;99.90;;;;;;5083371;28;20832;-74
2021/12/24 21:20:07;;;;;;;24.60;15.30;;;9.20;99.90;;;;;;5109772;28;20782;-73
2021/12/24 21:22:33;;;;;;;31.60;16.50;;;9.10;99.90;;;;;;5097229;28;20466;-73
2021/12/24 21:24:59;;;;;;;23.33;13.77;;;9.60;99.90;;;;;;5071211;28;20433;-72
2021/12/24 21:27:25;;;;;;;25.40;13.97;;;9.10;99.90;;;;;;5090054;28;21066;-73
2021/12/24 21:29:51;;;;;;;22.53;13.80;;;9.00;99.90;;;;;;5071279;28;20175;-73
2021/12/24 21:32:18;;;;;;;24.90;13.83;;;9.00;99.90;;;;;;5071255;28;20545;-73
2021/12/24 21:34:44;;;;;;;23.53;13.77;;;9.00;99.90;;;;;;5070171;28;20842;-72
2021/12/24 21:37:09;;;;;;;23.07;14.77;;;9.00;99.90;;;;;;5089948;28;20418;-72
2021/12/24 21:39:35;;;;;;;28.03;16.30;;;8.90;99.90;;;;;;5071088;28;20464;-73
2021/12/24 21:42:03;;;;;;;28.20;14.13;;;8.80;99.90;;;;;;5089601;28;20295;-73
2021/12/24 21:44:32;;;;;;;22.73;14.43;;;8.80;99.90;;;;;;5069584;28;20680;-72
2021/12/24 21:46:58;;;;;;;27.27;15.33;;;8.80;99.90;;;;;;5094469;28;20425;-72
2021/12/24 21:49:23;;;;;;;24.07;16.43;;;8.80;99.90;;;;;;5097684;28;20459;-73
2021/12/24 21:51:49;;;;;;;28.90;15.10;;;8.70;99.90;;;;;;5088554;28;20426;-72
2021/12/24 21:54:14;;;;;;;27.10;15.93;;;8.70;99.90;;;;;;5089230;28;20191;-72
2021/12/24 21:56:40;;;;;;;22.87;13.83;;;8.70;99.90;;;;;;5089741;28;20172;-72